Adamsville, Tennessee
Current Conditions -  °F | °C
As of 12:55 PM on Wednesday 26 Nov 2014 (Local Time) from KSNH Reporting Station
Scattered Clouds Scattered Clouds  
Wind Chill: 45°   Ceiling: Unl
Heat Index: 48°   Visibility: 10mi
Dew Point: 27°   Wind: 8mph
Humidity: 43%   Direction: 160°SSE
Pressure: 30.05"   Gusts: NA
Location:  35.24°N, 88.39°W
Report Text: KSNH 261855Z AUTO 16007KT 10SM SCT090 09/M03 A3005 RMK
Loading
Personal Weather Stations






























Interactive Weather Map New forecast layout! Learn more

10-Day Weather Forecast

Advertisements
Track Severe Weather on mobile